Time;durP1;ratioP1;P1;durP2;ratioP2;P2;SDS_P1;SDS_P2;PMS_P1;PMS_P2;Temp;Humidity;BMP_temperature;BMP_pressure;BME280_temperature;BME280_humidity;BME280_pressure;Samples;Min_cycle;Max_cycle;Signal;HPM_P1;HPM_P2
2021/09/30 00:01:31;;;;;;;42.53;23.83;;;19.20;79.10;;;;;;5051456;28;20032;-62
2021/09/30 00:03:57;;;;;;;38.58;23.00;;;19.20;79.00;;;;;;5050535;28;20033;-62
2021/09/30 00:06:22;;;;;;;37.67;23.05;;;19.20;79.30;;;;;;5051291;28;20080;-62
2021/09/30 00:08:48;;;;;;;40.55;23.20;;;19.20;79.00;;;;;;5050063;28;20024;-62
2021/09/30 00:11:19;;;;;;;37.53;20.63;;;19.20;79.10;;;;;;5051427;28;20021;-62
2021/09/30 00:13:51;;;;;;;36.38;20.58;;;19.20;79.00;;;;;;5050133;28;20390;-62
2021/09/30 00:40:34;;;;;;;31.80;17.27;;;19.10;79.30;;;;;;5051326;28;20044;-62
2021/09/30 00:45:27;;;;;;;28.45;15.80;;;19.10;79.20;;;;;;5051158;28;20100;-62
2021/09/30 00:45:56;;;;;;;28.17;15.65;;;19.10;78.80;;;;;;5050736;28;20170;-62
2021/09/30 00:51:14;;;;;;;28.15;15.77;;;19.00;79.00;;;;;;5051064;28;20048;-62
2021/09/30 01:19:56;;;;;;;22.15;13.18;;;19.00;79.30;;;;;;5054451;28;20044;-62
2021/09/30 01:27:59;;;;;;;26.50;13.73;;;18.90;79.50;;;;;;5023045;28;20560;-62
2021/09/30 01:40:15;;;;;;;23.35;13.10;;;18.70;79.80;;;;;;5053648;28;20079;-62
2021/09/30 02:26:31;;;;;;;20.45;9.52;;;18.60;80.30;;;;;;5054144;28;20029;-63
2021/09/30 02:58:42;;;;;;;16.50;8.05;;;18.60;80.40;;;;;;5072687;28;20032;-62
2021/09/30 03:01:16;;;;;;;15.05;7.68;;;18.50;80.40;;;;;;5071037;28;20025;-62
2021/09/30 03:03:43;;;;;;;13.48;7.70;;;18.50;80.40;;;;;;5071876;28;20488;-62
2021/09/30 03:06:09;;;;;;;14.20;7.60;;;18.50;80.50;;;;;;5071672;28;20041;-62
2021/09/30 03:08:44;;;;;;;13.20;7.15;;;18.50;80.50;;;;;;5072136;28;20024;-62
2021/09/30 03:11:11;;;;;;;13.02;6.75;;;18.50;80.50;;;;;;5070884;28;20043;-62
2021/09/30 03:13:38;;;;;;;14.00;7.20;;;18.50;80.50;;;;;;5071844;28;20028;-62
2021/09/30 03:16:12;;;;;;;14.55;6.85;;;18.50;80.50;;;;;;5071889;28;20099;-62
2021/09/30 03:23:41;;;;;;;14.05;7.07;;;18.40;80.70;;;;;;5072079;28;20028;-62
2021/09/30 03:26:07;;;;;;;13.93;7.10;;;18.50;80.80;;;;;;5069078;28;20029;-62
2021/09/30 03:28:34;;;;;;;11.65;6.15;;;18.50;80.70;;;;;;5051867;28;20043;-62
2021/09/30 03:31:01;;;;;;;14.02;6.40;;;18.40;80.70;;;;;;5050985;28;20454;-62
2021/09/30 03:33:27;;;;;;;14.27;6.60;;;18.40;80.70;;;;;;5051682;28;20029;-62
2021/09/30 03:35:52;;;;;;;12.25;6.03;;;18.40;80.60;;;;;;5052821;28;20043;-62
2021/09/30 03:38:20;;;;;;;12.60;6.00;;;18.40;80.70;;;;;;5051431;28;20017;-62
2021/09/30 03:40:46;;;;;;;12.02;6.55;;;18.40;80.60;;;;;;5050473;28;20025;-62
2021/09/30 03:43:12;;;;;;;10.70;5.40;;;18.40;80.50;;;;;;5051603;28;20455;-62
2021/09/30 03:45:39;;;;;;;10.90;6.10;;;18.40;80.60;;;;;;5051380;28;20029;-62
2021/09/30 03:48:04;;;;;;;13.82;5.88;;;18.40;80.70;;;;;;5050066;28;20517;-61
2021/09/30 03:50:34;;;;;;;12.82;6.30;;;18.40;80.60;;;;;;5051616;28;20029;-61
2021/09/30 03:55:36;;;;;;;12.82;6.25;;;18.40;80.60;;;;;;5051499;28;20032;-62
2021/09/30 04:00:33;;;;;;;11.70;5.70;;;18.30;80.70;;;;;;5051762;28;20021;-62
2021/09/30 04:02:58;;;;;;;11.82;5.40;;;18.30;80.80;;;;;;5050290;28;20052;-62
2021/09/30 04:05:24;;;;;;;13.10;5.88;;;18.30;80.70;;;;;;5050459;28;20029;-62
2021/09/30 04:07:50;;;;;;;11.07;5.32;;;18.30;80.60;;;;;;5050979;28;20033;-62
2021/09/30 04:10:15;;;;;;;11.13;5.30;;;18.40;80.60;;;;;;5050069;28;20028;-62
2021/09/30 04:12:41;;;;;;;10.05;5.30;;;18.30;80.60;;;;;;5050072;28;20106;-62
2021/09/30 04:15:07;;;;;;;10.18;4.80;;;18.40;80.60;;;;;;5050053;28;20112;-62
2021/09/30 04:17:32;;;;;;;9.15;4.60;;;18.30;80.50;;;;;;5051017;28;20032;-62
2021/09/30 04:19:58;;;;;;;12.50;5.50;;;18.30;80.60;;;;;;5051272;28;20099;-62
2021/09/30 04:22:23;;;;;;;11.68;5.03;;;18.30;80.60;;;;;;5051303;28;20075;-61
2021/09/30 04:24:49;;;;;;;10.55;4.53;;;18.30;80.50;;;;;;5051073;28;20027;-61
2021/09/30 04:27:15;;;;;;;8.63;4.47;;;18.30;80.60;;;;;;5050867;28;20021;-61
2021/09/30 04:29:41;;;;;;;10.43;4.88;;;18.30;80.50;;;;;;5049946;28;20021;-62
2021/09/30 04:32:07;;;;;;;10.27;5.10;;;18.30;80.40;;;;;;5049852;28;20017;-61
2021/09/30 04:34:32;;;;;;;9.25;4.35;;;18.30;80.40;;;;;;5050980;28;20033;-61
2021/09/30 04:36:59;;;;;;;9.60;4.40;;;18.30;80.40;;;;;;5050845;28;20024;-61
2021/09/30 04:39:24;;;;;;;8.85;4.20;;;18.30;80.30;;;;;;5051013;28;20024;-63
2021/09/30 04:41:50;;;;;;;9.45;4.47;;;18.30;80.30;;;;;;5051897;28;20025;-61
2021/09/30 04:44:16;;;;;;;9.90;4.60;;;18.30;80.40;;;;;;5053631;28;20402;-62
2021/09/30 04:46:42;;;;;;;9.23;4.22;;;18.30;80.50;;;;;;5054638;28;20074;-61
2021/09/30 04:49:07;;;;;;;10.55;4.28;;;18.30;81.00;;;;;;5068123;28;20047;-62
2021/09/30 04:51:33;;;;;;;9.27;3.97;;;18.30;80.60;;;;;;5066092;28;20760;-61
2021/09/30 04:53:59;;;;;;;9.07;4.05;;;18.30;80.50;;;;;;5060984;28;21093;-61
2021/09/30 04:56:25;;;;;;;10.20;4.22;;;18.30;80.30;;;;;;5066984;28;20700;-62
2021/09/30 04:58:51;;;;;;;8.95;3.97;;;18.30;80.30;;;;;;5062004;28;20037;-62
2021/09/30 05:01:16;;;;;;;11.18;4.63;;;18.30;80.30;;;;;;5048722;28;20033;-62
2021/09/30 05:03:42;;;;;;;12.52;4.90;;;18.30;80.30;;;;;;5061801;28;20043;-62
2021/09/30 05:06:08;;;;;;;9.80;4.10;;;18.30;80.60;;;;;;5068257;28;20036;-62
2021/09/30 05:08:34;;;;;;;8.95;3.83;;;18.30;80.70;;;;;;5066856;28;20061;-62
2021/09/30 05:11:02;;;;;;;13.40;4.53;;;18.30;80.60;;;;;;5066544;28;20016;-61
2021/09/30 05:13:38;;;;;;;12.60;4.00;;;18.30;81.00;;;;;;5065845;28;20039;-61
2021/09/30 05:16:11;;;;;;;14.57;4.30;;;18.30;80.80;;;;;;5062541;28;20028;-62
2021/09/30 05:18:46;;;;;;;17.02;4.55;;;18.30;81.60;;;;;;5047670;28;20704;-63
2021/09/30 05:21:12;;;;;;;19.90;5.55;;;18.50;82.60;;;;;;5046862;28;20508;-62
2021/09/30 05:23:38;;;;;;;16.92;4.63;;;18.50;82.90;;;;;;5066169;28;20032;-62
2021/09/30 05:26:04;;;;;;;16.77;4.72;;;18.50;82.00;;;;;;5066058;28;20082;-63
2021/09/30 05:28:30;;;;;;;18.95;4.43;;;18.50;82.00;;;;;;5066481;28;20029;-62
2021/09/30 05:30:55;;;;;;;12.30;4.45;;;18.40;82.10;;;;;;5066247;28;20035;-63
2021/09/30 05:33:21;;;;;;;19.98;5.00;;;18.50;81.90;;;;;;5066744;28;20020;-64
2021/09/30 05:35:48;;;;;;;18.60;4.47;;;18.50;81.80;;;;;;5066275;28;20055;-63
2021/09/30 05:38:14;;;;;;;17.58;4.55;;;18.50;82.30;;;;;;5066179;28;20436;-63
2021/09/30 05:40:40;;;;;;;12.07;4.05;;;18.60;81.90;;;;;;5066315;28;20055;-64
2021/09/30 05:43:10;;;;;;;11.57;3.88;;;18.60;81.70;;;;;;5066537;28;20029;-63
2021/09/30 05:45:41;;;;;;;15.35;4.50;;;18.70;81.80;;;;;;5066496;28;20028;-62
2021/09/30 05:48:07;;;;;;;;;;;18.60;81.20;;;;;;5066506;28;20531;-62
2021/09/30 05:50:33;;;;;;;15.07;4.45;;;18.50;81.30;;;;;;5065180;28;19943;-62
2021/09/30 05:52:58;;;;;;;12.10;3.80;;;18.60;81.30;;;;;;5064875;28;20119;-62
2021/09/30 05:55:24;;;;;;;14.90;4.28;;;18.50;81.00;;;;;;5064253;28;20017;-61
2021/09/30 05:57:50;;;;;;;12.07;3.70;;;18.50;81.20;;;;;;5065256;28;20474;-61
2021/09/30 06:11:00;;;;;;;11.75;3.83;;;18.70;80.40;;;;;;5059208;28;20064;-63
2021/09/30 06:13:34;;;;;;;12.70;3.90;;;18.70;79.40;;;;;;5045229;28;20166;-63
2021/09/30 06:16:05;;;;;;;9.85;3.50;;;18.70;78.10;;;;;;5045277;28;20025;-62
2021/09/30 06:18:30;;;;;;;11.15;3.83;;;18.80;75.10;;;;;;5045310;28;20021;-63
2021/09/30 06:20:56;;;;;;;10.95;3.95;;;18.80;71.80;;;;;;5045383;28;20029;-64
2021/09/30 06:23:22;;;;;;;10.15;3.67;;;18.80;69.90;;;;;;5046649;28;20119;-63
2021/09/30 06:25:47;;;;;;;8.50;3.20;;;18.90;69.70;;;;;;5045140;28;20032;-64
2021/09/30 06:28:13;;;;;;;9.75;3.25;;;18.90;67.80;;;;;;5064716;28;20025;-63
2021/09/30 06:30:38;;;;;;;7.40;3.08;;;18.90;66.50;;;;;;5066519;28;20035;-63
2021/09/30 06:33:04;;;;;;;9.05;3.22;;;18.90;66.90;;;;;;5066487;28;20024;-63
2021/09/30 06:35:30;;;;;;;9.27;3.13;;;19.00;66.80;;;;;;5064591;28;20028;-63
2021/09/30 06:37:55;;;;;;;8.48;2.90;;;19.00;64.80;;;;;;5064868;28;20129;-63
2021/09/30 06:40:21;;;;;;;12.68;3.50;;;18.90;63.70;;;;;;5064300;28;20091;-63
2021/09/30 06:42:46;;;;;;;9.45;3.00;;;18.80;62.50;;;;;;5063546;28;20052;-65
2021/09/30 06:45:13;;;;;;;8.40;2.90;;;18.90;62.90;;;;;;5062824;28;20063;-63
2021/09/30 06:47:38;;;;;;;7.18;2.60;;;18.90;62.30;;;;;;5064093;28;20027;-63
2021/09/30 06:50:08;;;;;;;8.18;3.00;;;18.80;62.50;;;;;;5063355;28;20455;-63
2021/09/30 06:52:34;;;;;;;8.32;2.90;;;18.90;62.00;;;;;;5064507;28;20055;-63
2021/09/30 06:54:59;;;;;;;10.75;3.03;;;19.00;62.40;;;;;;5059331;28;20488;-64
2021/09/30 06:57:29;;;;;;;9.38;2.92;;;19.00;62.50;;;;;;5064352;28;20024;-62
2021/09/30 06:59:59;;;;;;;9.38;2.85;;;19.10;61.40;;;;;;5064483;28;20016;-63
2021/09/30 07:02:25;;;;;;;9.68;2.92;;;19.10;61.30;;;;;;5064902;28;20024;-63
2021/09/30 07:04:51;;;;;;;10.15;2.95;;;19.00;60.50;;;;;;5064749;28;20028;-63
2021/09/30 07:07:17;;;;;;;9.25;2.88;;;18.90;60.60;;;;;;5064607;28;20023;-63
2021/09/30 07:09:43;;;;;;;7.10;2.97;;;19.00;60.40;;;;;;5064968;28;20492;-64
2021/09/30 07:12:08;;;;;;;6.20;2.70;;;19.10;61.20;;;;;;5064798;28;20516;-64
2021/09/30 07:14:34;;;;;;;7.90;2.63;;;19.10;60.50;;;;;;5064202;28;20060;-64
2021/09/30 07:17:00;;;;;;;7.07;2.60;;;19.10;60.30;;;;;;5063993;28;20035;-63
2021/09/30 07:19:25;;;;;;;7.63;2.42;;;19.10;60.00;;;;;;5062572;28;20039;-63
2021/09/30 07:21:51;;;;;;;13.55;2.97;;;19.20;61.20;;;;;;5068851;28;20027;-63
2021/09/30 07:24:17;;;;;;;8.10;2.80;;;19.30;61.50;;;;;;5070411;28;20162;-63
2021/09/30 07:26:45;;;;;;;6.75;2.17;;;19.60;61.70;;;;;;5065533;28;20017;-63
2021/09/30 07:29:11;;;;;;;9.10;2.75;;;19.70;62.00;;;;;;5050555;28;20028;-63
2021/09/30 07:31:36;;;;;;;9.00;2.67;;;19.80;62.10;;;;;;5050701;28;20375;-63
2021/09/30 07:34:04;;;;;;;6.57;2.20;;;19.90;62.30;;;;;;5050181;28;20048;-63
2021/09/30 07:36:30;;;;;;;9.43;2.50;;;20.00;62.70;;;;;;5050445;28;20013;-63
2021/09/30 07:38:56;;;;;;;7.20;2.60;;;20.10;62.70;;;;;;5048813;28;20689;-63
2021/09/30 07:41:21;;;;;;;8.18;2.60;;;20.10;62.60;;;;;;5050163;28;20016;-64
2021/09/30 07:43:47;;;;;;;8.18;2.58;;;20.20;62.70;;;;;;5049292;28;20398;-64
2021/09/30 07:46:13;;;;;;;10.23;2.80;;;20.30;62.90;;;;;;5050198;28;20028;-63
2021/09/30 07:48:38;;;;;;;7.20;2.38;;;20.30;62.80;;;;;;5050478;28;20021;-63
2021/09/30 07:51:04;;;;;;;7.55;2.33;;;20.30;63.00;;;;;;5050462;28;20463;-63
2021/09/30 07:53:29;;;;;;;7.10;2.60;;;20.30;63.20;;;;;;5050334;28;20048;-63
2021/09/30 07:55:55;;;;;;;7.25;2.60;;;20.30;63.10;;;;;;5050155;28;20017;-63
2021/09/30 08:10:07;;;;;;;37.00;4.10;;;17.10;66.90;;;;;;5161667;27;20683;-70
2021/09/30 08:12:33;;;;;;;24.60;4.57;;;15.70;73.00;;;;;;5128036;27;20027;-70
2021/09/30 08:14:58;;;;;;;29.20;4.55;;;15.20;77.60;;;;;;5128209;27;20019;-69
2021/09/30 08:17:24;;;;;;;25.67;3.85;;;15.00;79.10;;;;;;5127753;27;20203;-68
2021/09/30 08:19:50;;;;;;;27.52;4.13;;;14.90;79.30;;;;;;5128671;27;20019;-69
2021/09/30 08:22:15;;;;;;;26.98;3.60;;;14.90;80.30;;;;;;5128696;27;20020;-69
2021/09/30 08:24:41;;;;;;;22.73;3.45;;;14.90;80.10;;;;;;5128500;27;20015;-69
2021/09/30 08:27:07;;;;;;;19.80;3.63;;;15.00;80.10;;;;;;5128338;27;20026;-68
2021/09/30 08:29:33;;;;;;;22.08;3.58;;;15.00;80.80;;;;;;5128496;27;20031;-68
2021/09/30 08:31:58;;;;;;;17.45;4.03;;;15.00;80.40;;;;;;5128292;27;20034;-70
2021/09/30 08:34:24;;;;;;;10.07;2.95;;;15.00;80.70;;;;;;5128433;27;20160;-68
2021/09/30 08:36:50;;;;;;;16.20;2.90;;;15.00;80.50;;;;;;5128008;27;20060;-68
2021/09/30 08:39:16;;;;;;;17.00;2.90;;;15.10;80.20;;;;;;5128385;27;20020;-68
2021/09/30 08:41:42;;;;;;;13.05;3.35;;;15.10;80.50;;;;;;5128414;27;20106;-68
2021/09/30 08:44:08;;;;;;;16.92;3.25;;;15.10;80.70;;;;;;5128168;27;20027;-68
2021/09/30 08:46:35;;;;;;;14.57;3.00;;;15.10;80.80;;;;;;5127823;27;20076;-68
2021/09/30 08:49:01;;;;;;;11.27;2.95;;;15.10;80.80;;;;;;5128117;27;20027;-69
2021/09/30 08:51:27;;;;;;;13.65;3.00;;;15.10;80.50;;;;;;5128076;27;20133;-69
2021/09/30 08:53:53;;;;;;;14.48;3.17;;;15.10;80.40;;;;;;5127953;27;20396;-69
2021/09/30 08:56:18;;;;;;;12.85;2.78;;;15.10;80.60;;;;;;5127739;27;20026;-69
2021/09/30 08:58:44;;;;;;;11.25;3.03;;;15.10;80.40;;;;;;5127952;27;20114;-69
2021/09/30 09:01:11;;;;;;;10.85;2.40;;;15.10;80.10;;;;;;5125304;27;20053;-69
2021/09/30 09:03:46;;;;;;;13.68;2.78;;;15.10;80.30;;;;;;5127721;27;20015;-70
2021/09/30 09:06:35;;;;;;;8.70;2.58;;;15.10;80.40;;;;;;5127453;27;20062;-68
2021/09/30 09:09:21;;;;;;;10.60;2.47;;;15.10;80.20;;;;;;5127586;28;20035;-69
2021/09/30 09:11:48;;;;;;;9.57;2.42;;;15.10;80.60;;;;;;5127979;28;20015;-68
2021/09/30 09:14:28;;;;;;;9.60;2.35;;;15.10;80.20;;;;;;5127639;28;20011;-68
2021/09/30 09:16:55;;;;;;;9.55;3.00;;;15.10;79.90;;;;;;5127483;28;20713;-70
2021/09/30 09:19:53;;;;;;;9.48;2.33;;;15.10;80.10;;;;;;5126146;28;20035;-67
2021/09/30 09:22:22;;;;;;;9.88;2.50;;;15.10;80.10;;;;;;5109641;28;20110;-70
2021/09/30 09:25:12;;;;;;;11.73;3.00;;;15.10;79.70;;;;;;5113754;28;20110;-69
2021/09/30 09:27:55;;;;;;;7.20;2.23;;;15.10;79.90;;;;;;5113419;28;20026;-68
2021/09/30 09:30:25;;;;;;;7.30;2.20;;;15.10;79.80;;;;;;5113568;28;20089;-70
2021/09/30 09:33:04;;;;;;;6.30;2.10;;;15.10;80.00;;;;;;5113636;28;20023;-69
2021/09/30 09:35:42;;;;;;;6.82;2.00;;;15.10;80.10;;;;;;5114709;28;20094;-69
2021/09/30 09:38:09;;;;;;;7.70;2.20;;;15.10;79.70;;;;;;5113219;28;20015;-69
2021/09/30 09:40:35;;;;;;;8.23;2.17;;;15.10;79.80;;;;;;5113367;28;20092;-70
2021/09/30 09:43:22;;;;;;;10.25;2.50;;;15.20;80.00;;;;;;5113424;28;20069;-70
2021/09/30 09:45:48;;;;;;;7.30;2.10;;;15.20;79.50;;;;;;5113142;28;20019;-70
2021/09/30 09:48:16;;;;;;;12.25;2.10;;;15.20;79.80;;;;;;5113041;28;20035;-69
2021/09/30 09:50:42;;;;;;;7.95;1.90;;;15.20;79.50;;;;;;5113264;28;20015;-70
2021/09/30 09:53:07;;;;;;;8.07;2.10;;;15.10;79.50;;;;;;5112998;28;20022;-68
2021/09/30 09:55:37;;;;;;;9.90;2.20;;;15.20;79.60;;;;;;5111341;28;20468;-69
2021/09/30 09:58:17;;;;;;;11.35;2.20;;;15.10;79.80;;;;;;5110344;28;20023;-70
2021/09/30 10:01:03;;;;;;;8.93;2.20;;;15.20;79.60;;;;;;5111961;28;20022;-68
2021/09/30 10:03:31;;;;;;;9.40;2.03;;;15.20;79.40;;;;;;5111328;28;20044;-70
2021/09/30 10:06:02;;;;;;;9.63;1.85;;;15.10;79.30;;;;;;5111678;28;20038;-69
2021/09/30 10:08:29;;;;;;;9.07;1.90;;;15.10;79.30;;;;;;5112600;28;20032;-69
2021/09/30 10:10:56;;;;;;;8.52;2.33;;;15.10;79.20;;;;;;5112960;28;20046;-69
2021/09/30 10:13:26;;;;;;;19.20;3.00;;;15.10;79.70;;;;;;5112864;28;20543;-69
2021/09/30 10:15:54;;;;;;;12.75;2.58;;;15.10;79.00;;;;;;5112646;28;20024;-69
2021/09/30 10:18:22;;;;;;;11.20;2.00;;;15.10;79.40;;;;;;5112465;28;20484;-69
2021/09/30 10:20:48;;;;;;;13.60;2.60;;;15.10;79.60;;;;;;5112626;28;20084;-70
2021/09/30 10:23:19;;;;;;;12.90;2.22;;;15.10;79.60;;;;;;5112708;28;20027;-69
2021/09/30 10:25:47;;;;;;;9.27;2.15;;;15.10;79.30;;;;;;5112424;28;20092;-69
2021/09/30 10:28:13;;;;;;;9.38;2.10;;;15.10;78.80;;;;;;5112124;28;20085;-68
2021/09/30 10:30:48;;;;;;;7.05;1.92;;;15.00;78.70;;;;;;5112485;28;20468;-69
2021/09/30 10:33:40;;;;;;;8.63;1.70;;;15.10;78.90;;;;;;5111662;28;20442;-68
2021/09/30 10:36:39;;;;;;;9.50;2.08;;;15.10;80.40;;;;;;5112126;28;20023;-68
2021/09/30 10:39:18;;;;;;;18.20;2.40;;;15.20;80.70;;;;;;5112368;28;20027;-69
2021/09/30 10:41:44;;;;;;;12.27;2.00;;;15.10;79.40;;;;;;5112268;28;20507;-68
2021/09/30 10:44:18;;;;;;;8.45;1.80;;;15.10;79.60;;;;;;5112223;28;20031;-68
2021/09/30 10:46:47;;;;;;;7.85;2.17;;;15.10;79.60;;;;;;5111741;28;20031;-69
2021/09/30 10:49:36;;;;;;;6.15;1.70;;;15.10;79.60;;;;;;5111947;28;20460;-69
2021/09/30 10:52:13;;;;;;;8.93;1.52;;;15.10;79.40;;;;;;5112176;28;20020;-68
2021/09/30 10:54:40;;;;;;;8.63;2.00;;;15.10;79.60;;;;;;5112021;28;20503;-69
2021/09/30 10:57:35;;;;;;;10.45;2.20;;;15.20;79.40;;;;;;5111759;28;20465;-68
2021/09/30 11:00:04;;;;;;;10.27;2.40;;;15.20;79.30;;;;;;5112037;28;20028;-68
2021/09/30 11:02:30;;;;;;;8.57;1.80;;;15.20;79.00;;;;;;5111994;28;20019;-67
2021/09/30 11:05:10;;;;;;;10.00;2.20;;;15.20;79.10;;;;;;5111162;28;20023;-68
2021/09/30 11:07:40;;;;;;;7.28;1.70;;;15.20;78.60;;;;;;5111534;28;20019;-68
2021/09/30 11:10:22;;;;;;;10.45;1.90;;;15.20;78.70;;;;;;5111771;28;20055;-68
2021/09/30 11:13:16;;;;;;;12.63;2.05;;;15.20;78.50;;;;;;5108861;28;20016;-68
2021/09/30 11:16:01;;;;;;;9.25;2.17;;;15.20;78.40;;;;;;5111210;28;20031;-68
2021/09/30 11:18:43;;;;;;;6.07;1.40;;;15.20;78.10;;;;;;5111264;28;20051;-68
2021/09/30 11:23:57;;;;;;;6.90;1.83;;;15.20;78.70;;;;;;5112685;28;20030;-68
2021/09/30 11:26:23;;;;;;;9.85;1.88;;;15.30;78.30;;;;;;5111026;28;20699;-68
2021/09/30 11:28:50;;;;;;;7.60;1.63;;;15.30;77.80;;;;;;5111348;28;20148;-68
2021/09/30 11:31:29;;;;;;;5.63;1.48;;;15.20;77.40;;;;;;5111220;28;20427;-70
2021/09/30 11:33:57;;;;;;;9.10;1.83;;;15.20;77.80;;;;;;5111220;28;20015;-68
2021/09/30 11:36:35;;;;;;;8.35;1.48;;;15.20;77.80;;;;;;5110868;28;20012;-67
2021/09/30 11:39:02;;;;;;;5.00;1.38;;;15.20;77.40;;;;;;5109952;28;20053;-68
2021/09/30 11:41:29;;;;;;;6.43;1.60;;;15.20;77.40;;;;;;5111151;28;20030;-69
2021/09/30 11:43:55;;;;;;;4.60;1.20;;;15.20;77.80;;;;;;5104417;28;20024;-68
2021/09/30 11:46:26;;;;;;;6.00;1.60;;;15.10;77.20;;;;;;5110516;28;20024;-68
2021/09/30 11:48:59;;;;;;;6.40;1.58;;;15.20;77.10;;;;;;5110989;28;20032;-68
2021/09/30 11:51:38;;;;;;;7.00;1.50;;;15.20;77.20;;;;;;5111041;28;20043;-68
2021/09/30 11:54:04;;;;;;;7.68;1.70;;;15.20;77.30;;;;;;5111010;28;20384;-68
2021/09/30 11:56:38;;;;;;;8.95;2.05;;;15.20;77.40;;;;;;5110646;28;20409;-70
2021/09/30 11:59:05;;;;;;;6.75;1.80;;;15.20;77.30;;;;;;5111061;28;20030;-68
2021/09/30 12:01:52;;;;;;;6.82;1.55;;;15.20;77.20;;;;;;5110706;28;20016;-69
2021/09/30 12:04:43;;;;;;;11.07;1.98;;;15.20;77.20;;;;;;5110845;28;20024;-68
2021/09/30 12:07:24;;;;;;;7.32;1.77;;;15.20;77.30;;;;;;5109830;28;20023;-68
2021/09/30 12:09:58;;;;;;;10.43;1.50;;;15.30;77.30;;;;;;5110626;28;20468;-71
2021/09/30 12:12:33;;;;;;;8.65;2.30;;;15.20;77.30;;;;;;5111153;28;20066;-67
2021/09/30 12:14:59;;;;;;;6.32;1.75;;;15.20;76.70;;;;;;5110862;28;20050;-68
2021/09/30 12:17:36;;;;;;;8.05;1.70;;;15.20;77.30;;;;;;5110447;28;20016;-67
2021/09/30 12:20:07;;;;;;;6.90;1.58;;;15.30;76.90;;;;;;5110770;28;20023;-68
2021/09/30 12:22:35;;;;;;;4.78;1.40;;;15.20;76.20;;;;;;5110623;28;20042;-68
2021/09/30 12:25:04;;;;;;;7.15;1.60;;;15.20;76.30;;;;;;5110721;28;20030;-69
2021/09/30 12:27:33;;;;;;;7.95;2.08;;;15.20;76.50;;;;;;5110428;28;20098;-69
2021/09/30 12:30:23;;;;;;;9.38;1.73;;;15.20;76.20;;;;;;5110668;28;20399;-69
2021/09/30 12:32:52;;;;;;;6.78;1.92;;;15.20;75.90;;;;;;5107677;28;20160;-68
2021/09/30 12:35:26;;;;;;;7.57;1.70;;;15.20;75.80;;;;;;5110597;28;20019;-69
2021/09/30 12:37:58;;;;;;;6.95;1.55;;;15.20;75.40;;;;;;5110617;28;20103;-68
2021/09/30 12:40:28;;;;;;;8.85;1.80;;;15.20;76.10;;;;;;5090222;28;20020;-68
2021/09/30 12:42:56;;;;;;;6.97;1.90;;;15.30;75.90;;;;;;5105371;28;20558;-68
2021/09/30 12:45:21;;;;;;;9.32;2.03;;;15.30;75.80;;;;;;5108687;28;20426;-68
2021/09/30 12:47:47;;;;;;;5.80;2.03;;;15.30;75.70;;;;;;5108041;28;20024;-69
2021/09/30 12:50:18;;;;;;;7.90;1.90;;;15.30;75.70;;;;;;5109806;28;20023;-68
2021/09/30 12:52:44;;;;;;;7.20;1.88;;;15.30;75.80;;;;;;5109664;28;20030;-68
2021/09/30 12:55:16;;;;;;;5.03;1.50;;;15.20;76.00;;;;;;5111145;28;20019;-68
2021/09/30 12:57:42;;;;;;;5.95;1.85;;;15.30;76.10;;;;;;5113965;28;20016;-69
2021/09/30 13:00:09;;;;;;;6.95;1.67;;;15.30;75.20;;;;;;5113232;28;20038;-68
2021/09/30 13:02:35;;;;;;;8.38;1.70;;;15.30;75.60;;;;;;5114196;28;20027;-67
2021/09/30 13:05:01;;;;;;;9.85;1.80;;;15.30;75.70;;;;;;5114110;28;20115;-68
2021/09/30 13:08:01;;;;;;;7.53;1.80;;;15.30;75.60;;;;;;5113852;28;20035;-68
2021/09/30 13:10:30;;;;;;;;;;;15.30;75.40;;;;;;5115465;27;20043;-67
2021/09/30 13:12:58;;;;;;;5.43;1.70;;;15.30;75.80;;;;;;5113619;28;19935;-68
2021/09/30 13:15:37;;;;;;;8.20;1.92;;;15.30;75.90;;;;;;5114011;28;20020;-68
2021/09/30 13:18:04;;;;;;;8.50;2.00;;;15.30;75.50;;;;;;5113659;28;20089;-69
2021/09/30 13:20:30;;;;;;;8.07;1.70;;;15.30;75.50;;;;;;5113877;28;20034;-67
2021/09/30 13:22:56;;;;;;;5.55;1.60;;;15.30;75.40;;;;;;5113916;28;20401;-68
2021/09/30 13:25:22;;;;;;;5.95;1.70;;;15.40;75.10;;;;;;5113795;28;20016;-67
2021/09/30 13:27:50;;;;;;;7.40;1.70;;;15.30;75.00;;;;;;5113706;28;20472;-68
2021/09/30 13:30:23;;;;;;;4.72;1.60;;;15.40;75.60;;;;;;5113907;28;20119;-67
2021/09/30 13:32:50;;;;;;;5.00;1.80;;;15.40;75.50;;;;;;5113153;28;20076;-67
2021/09/30 13:35:16;;;;;;;6.47;1.60;;;15.30;75.70;;;;;;5113514;28;20058;-69
2021/09/30 13:37:42;;;;;;;5.63;2.00;;;15.30;75.10;;;;;;5113236;28;20492;-68
2021/09/30 13:40:09;;;;;;;4.68;1.63;;;15.30;75.00;;;;;;5113480;28;20055;-69
2021/09/30 13:42:36;;;;;;;5.30;1.67;;;15.30;75.40;;;;;;5112853;28;20062;-68
2021/09/30 13:45:11;;;;;;;7.50;1.70;;;15.40;75.30;;;;;;5113280;28;20035;-69
2021/09/30 13:47:36;;;;;;;6.50;1.42;;;15.30;75.30;;;;;;5114374;28;20031;-69
2021/09/30 13:50:04;;;;;;;9.60;1.83;;;15.40;74.70;;;;;;5113245;28;20020;-69
2021/09/30 13:52:29;;;;;;;8.98;1.80;;;15.40;74.20;;;;;;5113507;28;20388;-67
2021/09/30 13:54:55;;;;;;;6.40;1.90;;;15.40;74.10;;;;;;5113171;28;20027;-67
2021/09/30 13:57:21;;;;;;;7.85;2.15;;;15.30;73.80;;;;;;5112799;28;20019;-67
2021/09/30 13:59:47;;;;;;;7.60;1.70;;;15.30;73.80;;;;;;5113078;28;20023;-68
2021/09/30 14:02:12;;;;;;;4.68;1.40;;;15.30;73.90;;;;;;5113326;28;20059;-67
2021/09/30 14:04:38;;;;;;;6.93;1.95;;;15.30;73.90;;;;;;5113006;28;20026;-66
2021/09/30 14:07:05;;;;;;;6.45;1.70;;;15.30;74.30;;;;;;5112632;28;20023;-68
2021/09/30 14:09:32;;;;;;;5.70;1.60;;;15.30;73.30;;;;;;5112770;28;20118;-68
2021/09/30 14:11:58;;;;;;;7.55;1.60;;;15.30;73.40;;;;;;5112842;28;20427;-68
2021/09/30 14:14:25;;;;;;;6.22;1.60;;;15.30;73.40;;;;;;5112788;28;20076;-68
2021/09/30 14:16:51;;;;;;;4.90;1.42;;;15.30;73.50;;;;;;5112649;28;20054;-68
2021/09/30 14:19:18;;;;;;;4.80;1.55;;;15.30;73.70;;;;;;5112728;28;20031;-68
2021/09/30 14:21:44;;;;;;;4.88;1.65;;;15.30;73.90;;;;;;5112721;28;20072;-68
2021/09/30 14:24:10;;;;;;;7.25;2.00;;;15.30;74.00;;;;;;5112620;28;20024;-68
2021/09/30 14:26:36;;;;;;;5.40;1.65;;;15.40;73.60;;;;;;5112310;28;20062;-68
2021/09/30 14:29:03;;;;;;;4.85;1.58;;;15.30;73.80;;;;;;5112447;28;20024;-69
2021/09/30 14:31:29;;;;;;;7.90;2.00;;;15.30;73.70;;;;;;5112499;28;20019;-68
2021/09/30 14:33:54;;;;;;;4.85;1.65;;;15.30;73.60;;;;;;5113866;28;20477;-68
2021/09/30 14:36:20;;;;;;;6.60;1.73;;;15.30;73.40;;;;;;5112186;28;20027;-67
2021/09/30 14:38:46;;;;;;;5.10;1.52;;;15.30;73.60;;;;;;5112310;28;20374;-68
2021/09/30 14:41:12;;;;;;;6.10;1.58;;;15.30;73.20;;;;;;5111981;28;20047;-68
2021/09/30 14:43:37;;;;;;;7.63;2.22;;;15.30;73.00;;;;;;5112195;28;20366;-68
2021/09/30 14:46:05;;;;;;;6.88;1.70;;;15.30;73.50;;;;;;5113464;28;20442;-69
2021/09/30 14:48:31;;;;;;;6.13;1.60;;;15.40;73.20;;;;;;5112131;28;20027;-68
2021/09/30 14:50:57;;;;;;;4.82;1.60;;;15.30;73.70;;;;;;5112031;28;20396;-67
2021/09/30 14:53:23;;;;;;;5.60;1.60;;;15.40;73.60;;;;;;5112028;28;20030;-68
2021/09/30 14:55:49;;;;;;;5.10;1.67;;;15.40;73.50;;;;;;5111955;28;20022;-67
2021/09/30 14:58:14;;;;;;;5.63;1.48;;;15.30;73.40;;;;;;5111699;28;20388;-68
2021/09/30 15:00:40;;;;;;;5.57;1.50;;;15.30;74.00;;;;;;5111917;28;20459;-68
2021/09/30 15:03:06;;;;;;;4.82;1.52;;;15.30;74.00;;;;;;5111925;28;20038;-67
2021/09/30 15:05:34;;;;;;;5.85;1.88;;;15.30;74.10;;;;;;5111715;28;20115;-67
2021/09/30 15:08:01;;;;;;;7.05;1.70;;;15.30;74.60;;;;;;5111279;28;20035;-67
2021/09/30 15:10:27;;;;;;;6.70;1.50;;;15.30;74.60;;;;;;5111824;28;20016;-67
2021/09/30 15:12:52;;;;;;;5.03;1.60;;;15.30;74.60;;;;;;5111718;28;20015;-68
2021/09/30 15:15:18;;;;;;;5.53;1.80;;;15.30;75.10;;;;;;5111602;28;20024;-66
2021/09/30 15:21:20;;;;;;;7.68;1.58;;;15.30;75.90;;;;;;5112772;28;20031;-67
2021/09/30 15:22:59;;;;;;;4.93;1.42;;;15.30;75.40;;;;;;5112711;28;20492;-69
2021/09/30 15:25:25;;;;;;;5.45;1.35;;;15.30;76.00;;;;;;5111440;28;20035;-66
2021/09/30 15:27:52;;;;;;;6.47;1.52;;;15.30;76.10;;;;;;5111091;28;20023;-68
2021/09/30 15:30:19;;;;;;;5.13;1.30;;;15.40;76.00;;;;;;5111390;28;20396;-68
2021/09/30 15:32:44;;;;;;;6.22;1.40;;;15.30;76.30;;;;;;5111289;28;20023;-68
2021/09/30 15:37:42;;;;;;;;;;;15.30;76.60;;;;;;5007410;28;20049;-63
2021/09/30 15:40:08;;;;;;;7.18;1.60;;;15.40;76.70;;;;;;5010783;28;19959;-63
2021/09/30 15:42:34;;;;;;;5.65;1.30;;;15.30;75.90;;;;;;5005815;28;20036;-63
2021/09/30 15:44:59;;;;;;;4.15;1.35;;;15.30;76.80;;;;;;5005650;28;20444;-62
2021/09/30 15:47:26;;;;;;;4.10;1.30;;;15.30;76.70;;;;;;5005505;28;20520;-64
2021/09/30 15:49:52;;;;;;;7.63;1.38;;;15.20;77.00;;;;;;5006673;28;20514;-63
2021/09/30 15:52:18;;;;;;;3.75;1.13;;;15.30;77.80;;;;;;5007474;28;20026;-63
2021/09/30 15:54:45;;;;;;;5.00;1.45;;;15.30;77.50;;;;;;5007526;28;20019;-63